Time;durP1;ratioP1;P1;durP2;ratioP2;P2;SDS_P1;SDS_P2;PMS_P1;PMS_P2;Temp;Humidity;BMP_temperature;BMP_pressure;BME280_temperature;BME280_humidity;BME280_pressure;Samples;Min_cycle;Max_cycle;Signal;HPM_P1;HPM_P2
2021/12/07 00:00:07;;;;;;;19.42;8.25;;;;;;;-0.56;100.00;100440.41;5004933;28;20038;-65
2021/12/07 00:02:33;;;;;;;13.63;6.25;;;;;;;-0.54;100.00;100440.34;5010922;28;20133;-65
2021/12/07 00:04:58;;;;;;;15.95;6.70;;;;;;;-0.58;100.00;100434.34;5009535;28;20036;-65
2021/12/07 00:07:23;;;;;;;14.82;7.07;;;;;;;-0.54;100.00;100449.13;5009846;28;20030;-65
2021/12/07 00:09:50;;;;;;;15.10;6.85;;;;;;;-0.48;100.00;100445.41;5011508;28;20053;-65
2021/12/07 00:12:16;;;;;;;16.83;7.55;;;;;;;-0.44;100.00;100454.91;5010994;28;20053;-65
2021/12/07 00:14:43;;;;;;;18.58;7.15;;;;;;;-0.40;100.00;100450.38;5008590;28;20021;-65
2021/12/07 00:17:08;;;;;;;13.38;6.70;;;;;;;-0.47;100.00;100447.13;5006321;28;20112;-65
2021/12/07 00:19:34;;;;;;;12.48;6.85;;;;;;;-0.53;100.00;100456.09;5006247;28;20033;-65
2021/12/07 00:22:02;;;;;;;14.60;7.47;;;;;;;-0.59;100.00;100447.56;5012717;28;20040;-65
2021/12/07 00:24:27;;;;;;;21.67;8.70;;;;;;;-0.36;100.00;100459.91;5018947;28;20468;-65
2021/12/07 00:26:52;;;;;;;24.92;9.63;;;;;;;-0.33;100.00;100463.25;5010495;28;20088;-65
2021/12/07 00:29:18;;;;;;;15.25;6.60;;;;;;;-0.35;100.00;100466.88;5017391;28;20053;-65
2021/12/07 00:32:04;;;;;;;13.52;6.05;;;;;;;-0.35;100.00;100475.66;5009417;28;20021;-65
2021/12/07 00:36:58;;;;;;;19.70;8.23;;;;;;;-0.44;100.00;100467.22;5011098;28;20758;-65
2021/12/07 00:39:24;;;;;;;16.77;7.38;;;;;;;-0.42;100.00;100468.91;5017925;28;20508;-65
2021/12/07 00:41:51;;;;;;;20.60;7.97;;;;;;;-0.44;100.00;100470.75;5015152;28;20029;-66
2021/12/07 00:44:18;;;;;;;18.23;8.02;;;;;;;-0.46;100.00;100469.94;5012102;28;20025;-66
2021/12/07 00:46:43;;;;;;;21.67;8.75;;;;;;;-0.42;100.00;100479.47;5016211;28;20040;-66
2021/12/07 00:49:09;;;;;;;20.23;8.55;;;;;;;-0.37;100.00;100492.47;5011663;28;20472;-66
2021/12/07 00:51:34;;;;;;;20.80;8.15;;;;;;;-0.34;100.00;100501.13;5017458;28;20029;-65
2021/12/07 00:54:01;;;;;;;22.60;7.88;;;;;;;-0.28;100.00;100502.69;5013562;28;20616;-66
2021/12/07 00:56:26;;;;;;;39.35;12.43;;;;;;;-0.30;100.00;100493.97;5011643;28;20510;-66
2021/12/07 00:58:51;;;;;;;44.05;13.60;;;;;;;-0.27;100.00;100493.84;5013099;28;20042;-66
2021/12/07 01:01:18;;;;;;;29.02;10.40;;;;;;;-0.36;100.00;100488.91;5012456;28;20372;-66
2021/12/07 01:03:44;;;;;;;38.45;13.13;;;;;;;-0.38;100.00;100481.03;5008557;28;20702;-66
2021/12/07 01:06:21;;;;;;;32.92;12.52;;;;;;;-0.31;100.00;100498.38;5016741;28;20034;-66
2021/12/07 01:25:05;;;;;;;53.88;18.55;;;;;;;-0.06;100.00;100500.06;5013335;28;20079;-66
2021/12/07 01:27:31;;;;;;;71.93;21.20;;;;;;;0.07;100.00;100512.78;5007189;28;20104;-66
2021/12/07 01:30:09;;;;;;;68.43;18.15;;;;;;;0.16;100.00;100512.41;5011104;28;20951;-66
2021/12/07 01:35:31;;;;;;;63.35;19.30;;;;;;;0.16;100.00;100532.69;5011100;28;20026;-66
2021/12/07 01:40:32;;;;;;;36.83;13.80;;;;;;;0.21;100.00;100542.13;5013319;28;20033;-66
2021/12/07 01:45:54;;;;;;;63.53;18.10;;;;;;;0.35;100.00;100553.94;5010544;28;20038;-66
2021/12/07 02:01:45;;;;;;;;;;;;;;;0.43;100.00;100567.69;5009993;28;20044;-66
2021/12/07 02:04:11;;;;;;;38.45;13.70;;;;;;;0.41;100.00;100573.03;5014430;28;19921;-66
2021/12/07 02:06:36;;;;;;;40.88;14.13;;;;;;;0.40;100.00;100579.25;5007899;28;20033;-66
2021/12/07 02:09:04;;;;;;;25.52;11.60;;;;;;;0.36;100.00;100575.00;5012040;28;20056;-67
2021/12/07 02:11:30;;;;;;;35.25;13.60;;;;;;;0.37;100.00;100581.16;5006670;28;20133;-66
2021/12/07 02:16:22;;;;;;;30.75;12.32;;;;;;;0.26;100.00;100613.28;5010773;28;20112;-66
2021/12/07 02:18:47;;;;;;;43.03;15.73;;;;;;;0.28;100.00;100608.75;5013030;28;20487;-67
2021/12/07 02:21:24;;;;;;;35.65;13.82;;;;;;;0.28;100.00;100609.63;5014107;28;20073;-66
2021/12/07 02:23:51;;;;;;;28.90;11.65;;;;;;;0.31;100.00;100613.09;5012588;28;20067;-66
2021/12/07 02:26:17;;;;;;;34.50;11.98;;;;;;;0.29;100.00;100613.13;5012533;28;20037;-66
2021/12/07 02:28:42;;;;;;;44.00;15.40;;;;;;;0.12;100.00;100590.88;5014595;28;20131;-66
2021/12/07 02:31:09;;;;;;;49.50;16.30;;;;;;;0.25;100.00;100603.63;5008039;28;20646;-66
2021/12/07 02:33:35;;;;;;;48.53;16.63;;;;;;;0.37;100.00;100607.56;5013579;28;20064;-66
2021/12/07 02:36:00;;;;;;;32.20;12.07;;;;;;;0.32;100.00;100599.81;5011112;28;20049;-66
2021/12/07 02:38:26;;;;;;;38.17;12.95;;;;;;;0.43;100.00;100625.81;5010627;28;20364;-66
2021/12/07 02:40:51;;;;;;;31.73;12.85;;;;;;;0.46;100.00;100632.75;5011697;28;20033;-66
2021/12/07 02:43:16;;;;;;;46.50;15.63;;;;;;;0.50;100.00;100629.09;5008272;28;20033;-66
2021/12/07 02:45:42;;;;;;;57.83;17.77;;;;;;;0.45;100.00;100610.75;5007166;28;20056;-66
2021/12/07 02:48:07;;;;;;;55.78;18.08;;;;;;;0.52;100.00;100635.16;5011641;28;20111;-66
2021/12/07 02:50:35;;;;;;;48.47;15.57;;;;;;;0.50;100.00;100629.09;5011807;28;20613;-66
2021/12/07 02:53:01;;;;;;;34.25;13.27;;;;;;;0.45;100.00;100642.44;5005925;28;20060;-66
2021/12/07 02:55:27;;;;;;;34.45;12.68;;;;;;;0.35;100.00;100641.94;5013133;28;20100;-66
2021/12/07 02:57:52;;;;;;;31.00;10.70;;;;;;;0.29;100.00;100639.53;5015694;28;20049;-66
2021/12/07 03:00:22;;;;;;;25.95;10.88;;;;;;;0.09;100.00;100624.47;5010975;28;20060;-66
2021/12/07 03:03:00;;;;;;;43.08;11.50;;;;;;;0.18;100.00;100639.94;5012340;28;20033;-66
2021/12/07 03:05:47;;;;;;;27.42;10.98;;;;;;;0.19;100.00;100649.59;5012070;28;20029;-66
2021/12/07 03:27:22;;;;;;;37.55;12.18;;;;;;;0.46;100.00;100678.50;5020164;28;20148;-66
2021/12/07 03:29:48;;;;;;;43.95;13.50;;;;;;;0.47;100.00;100679.41;5012622;28;20187;-66
2021/12/07 03:32:13;;;;;;;46.97;13.55;;;;;;;0.49;100.00;100675.75;5007023;28;20172;-66
2021/12/07 03:34:39;;;;;;;42.08;12.10;;;;;;;0.65;100.00;100683.97;5009372;28;20021;-66
2021/12/07 03:37:04;;;;;;;49.75;12.00;;;;;;;0.72;100.00;100688.09;5014739;28;20026;-66
2021/12/07 03:39:29;;;;;;;30.27;10.05;;;;;;;0.75;100.00;100687.09;5009027;28;20049;-66
2021/12/07 03:41:55;;;;;;;46.72;13.25;;;;;;;0.81;100.00;100681.56;5008680;28;20040;-66
2021/12/07 03:44:20;;;;;;;31.92;10.23;;;;;;;0.81;100.00;100694.78;5009629;28;20035;-66
2021/12/07 03:46:45;;;;;;;36.03;9.90;;;;;;;0.87;100.00;100689.28;5008310;28;20040;-66
2021/12/07 03:49:11;;;;;;;27.88;9.25;;;;;;;0.85;100.00;100685.81;5006317;28;20030;-66
2021/12/07 03:51:36;;;;;;;31.33;8.57;;;;;;;0.94;100.00;100705.75;5009706;28;20037;-66
2021/12/07 03:54:02;;;;;;;38.20;10.13;;;;;;;0.97;100.00;100715.31;5010030;28;20036;-66
2021/12/07 03:56:28;;;;;;;21.48;6.85;;;;;;;1.00;100.00;100720.50;5011484;28;20374;-66
2021/12/07 03:58:53;;;;;;;32.65;8.63;;;;;;;1.12;100.00;100725.31;5009248;28;20033;-66
2021/12/07 04:01:23;;;;;;;30.25;8.60;;;;;;;1.26;100.00;100722.09;5009981;28;20060;-66
2021/12/07 04:03:48;;;;;;;19.85;5.15;;;;;;;1.30;100.00;100733.41;5012981;28;20167;-67
2021/12/07 04:06:14;;;;;;;19.92;4.93;;;;;;;1.39;100.00;100724.22;5013400;28;20037;-66
2021/12/07 04:08:43;;;;;;;23.27;6.32;;;;;;;1.40;100.00;100728.59;5014131;28;20396;-66
2021/12/07 04:11:09;;;;;;;31.63;6.75;;;;;;;1.40;100.00;100713.59;5016803;28;20081;-66
2021/12/07 04:13:35;;;;;;;20.65;5.45;;;;;;;1.34;100.00;100717.34;5015705;28;20507;-66
2021/12/07 04:16:01;;;;;;;17.52;5.43;;;;;;;1.31;100.00;100719.25;5010728;28;20037;-66
2021/12/07 04:18:27;;;;;;;18.15;4.28;;;;;;;1.33;100.00;100730.63;5016737;28;20358;-66
2021/12/07 04:20:53;;;;;;;25.08;5.03;;;;;;;1.33;100.00;100734.13;5014209;28;20029;-66
2021/12/07 04:23:18;;;;;;;23.00;5.20;;;;;;;1.22;100.00;100722.25;5016380;28;20083;-67
2021/12/07 04:25:43;;;;;;;9.82;3.92;;;;;;;1.40;100.00;100741.81;5015604;28;20037;-66
2021/12/07 04:28:09;;;;;;;20.95;4.65;;;;;;;1.32;100.00;100740.38;5013333;28;20050;-66
2021/12/07 04:30:39;;;;;;;20.98;4.95;;;;;;;1.38;100.00;100735.72;5011067;28;20397;-67
2021/12/07 04:33:06;;;;;;;12.70;3.65;;;;;;;1.44;100.00;100740.78;5013651;28;20071;-66
2021/12/07 04:35:32;;;;;;;26.05;6.68;;;;;;;1.43;100.00;100741.69;5013326;28;20036;-66
2021/12/07 04:37:58;;;;;;;26.33;6.13;;;;;;;1.29;100.00;100718.47;5020067;28;20036;-66
2021/12/07 04:40:26;;;;;;;17.75;4.65;;;;;;;1.32;100.00;100743.03;5018419;28;20038;-66
2021/12/07 04:42:52;;;;;;;20.95;4.53;;;;;;;1.34;100.00;100757.03;5016339;28;20029;-66
2021/12/07 04:45:34;;;;;;;22.40;4.80;;;;;;;1.31;100.00;100753.66;5013873;28;20022;-66
2021/12/07 04:58:30;;;;;;;21.15;4.28;;;;;;;0.92;100.00;100756.97;5011137;28;20096;-67
2021/12/07 05:00:55;;;;;;;17.23;3.95;;;;;;;0.95;100.00;100775.31;5000638;28;20567;-66
2021/12/07 05:03:21;;;;;;;15.38;4.32;;;;;;;0.95;100.00;100775.31;5014330;28;20076;-66
2021/12/07 05:05:50;;;;;;;19.20;4.65;;;;;;;0.92;100.00;100794.81;5012239;28;20062;-66
2021/12/07 05:08:29;;;;;;;17.05;4.80;;;;;;;0.90;100.00;100778.16;5023910;28;20029;-66
2021/12/07 05:13:27;;;;;;;24.15;4.72;;;;;;;0.96;100.00;100777.94;5020573;28;20026;-66
2021/12/07 05:34:46;;;;;;;17.73;4.03;;;;;;;1.13;100.00;100806.38;5010601;28;20031;-66
2021/12/07 05:39:57;;;;;;;7.20;3.10;;;;;;;1.15;100.00;100830.09;5009752;28;20086;-66
2021/12/07 05:42:23;;;;;;;22.02;4.40;;;;;;;1.03;100.00;100808.50;5017339;28;20033;-66
2021/12/07 05:44:54;;;;;;;22.83;5.30;;;;;;;1.17;100.00;100810.63;5013425;28;20041;-66
2021/12/07 05:47:19;;;;;;;12.32;3.65;;;;;;;1.00;100.00;100820.97;5013751;28;20129;-66
2021/12/07 05:49:44;;;;;;;22.98;3.60;;;;;;;0.87;100.00;100805.59;5012384;28;20033;-66
2021/12/07 05:52:10;;;;;;;18.77;3.85;;;;;;;1.02;100.00;100838.50;5017926;28;20112;-66
2021/12/07 05:54:35;;;;;;;15.75;3.97;;;;;;;1.00;100.00;100842.13;5013402;28;20028;-66
2021/12/07 05:57:01;;;;;;;21.75;3.90;;;;;;;0.83;100.00;100834.81;5008781;28;20040;-66
2021/12/07 05:59:26;;;;;;;20.88;4.07;;;;;;;0.85;100.00;100841.78;5015617;28;20032;-65
2021/12/07 06:01:51;;;;;;;16.15;3.85;;;;;;;0.91;100.00;100853.06;5009588;28;20048;-66
2021/12/07 06:04:17;;;;;;;21.63;5.43;;;;;;;0.93;100.00;100859.16;5016018;28;20404;-66
2021/12/07 06:06:42;;;;;;;12.93;3.75;;;;;;;0.97;100.00;100866.91;5008292;28;20637;-66
2021/12/07 06:09:08;;;;;;;19.02;5.45;;;;;;;0.86;100.00;100869.94;5015240;28;20033;-66
2021/12/07 06:11:33;;;;;;;20.77;4.30;;;;;;;0.93;100.00;100877.66;5016186;28;20041;-66
2021/12/07 06:13:58;;;;;;;20.88;3.65;;;;;;;0.86;100.00;100883.16;5014354;28;20075;-66
2021/12/07 06:16:24;;;;;;;18.38;4.40;;;;;;;0.99;100.00;100880.06;5013598;28;20056;-66
2021/12/07 06:18:50;;;;;;;24.80;4.38;;;;;;;0.91;100.00;100877.69;5015932;28;20026;-66
2021/12/07 06:21:15;;;;;;;12.82;3.65;;;;;;;0.77;100.00;100880.00;5007814;28;20361;-66
2021/12/07 06:23:41;;;;;;;21.35;4.53;;;;;;;0.92;100.00;100887.34;5009700;28;20037;-66
2021/12/07 06:26:07;;;;;;;14.30;3.80;;;;;;;0.94;100.00;100874.94;5014689;28;20130;-66
2021/12/07 06:28:32;;;;;;;12.80;3.90;;;;;;;0.89;100.00;100875.13;5007470;28;20454;-67
2021/12/07 06:30:58;;;;;;;18.25;3.50;;;;;;;0.92;100.00;100882.06;5009480;28;20869;-66
2021/12/07 06:33:25;;;;;;;14.18;3.40;;;;;;;0.85;100.00;100872.63;5016267;28;20112;-66
2021/12/07 06:35:57;;;;;;;7.07;2.97;;;;;;;0.73;100.00;100869.53;5011804;28;20519;-66
2021/12/07 06:38:24;;;;;;;21.77;5.88;;;;;;;0.96;100.00;100869.59;5009966;28;20041;-66
2021/12/07 06:40:49;;;;;;;24.45;3.83;;;;;;;0.95;100.00;100866.09;5009639;28;20025;-66
2021/12/07 06:43:15;;;;;;;16.13;3.45;;;;;;;0.77;100.00;100862.34;5010765;28;20026;-66
2021/12/07 06:45:40;;;;;;;19.02;4.10;;;;;;;0.83;100.00;100867.41;5009750;28;20472;-66
2021/12/07 06:48:06;;;;;;;21.90;4.80;;;;;;;0.89;100.00;100875.13;5011357;28;20030;-65
2021/12/07 06:50:32;;;;;;;17.08;4.07;;;;;;;0.67;100.00;100853.91;5010656;28;20022;-66
2021/12/07 06:52:57;;;;;;;17.80;5.00;;;;;;;0.60;100.00;100862.94;5008216;28;20036;-67
2021/12/07 06:55:23;;;;;;;27.33;4.95;;;;;;;0.72;100.00;100881.03;5013406;28;20149;-66
2021/12/07 06:57:48;;;;;;;25.88;7.30;;;;;;;0.80;100.00;100880.75;5009253;28;20077;-65
2021/12/07 07:00:14;;;;;;;17.70;5.57;;;;;;;0.80;100.00;100886.03;5011140;28;20484;-66
2021/12/07 07:02:40;;;;;;;16.30;4.40;;;;;;;0.57;100.00;100902.69;5012901;28;20069;-66
2021/12/07 07:05:05;;;;;;;27.33;5.60;;;;;;;0.57;100.00;100884.19;5010726;28;20029;-66
2021/12/07 07:07:33;;;;;;;29.10;5.95;;;;;;;0.52;100.00;100889.66;5007804;28;20072;-66
2021/12/07 07:09:58;;;;;;;19.48;5.25;;;;;;;0.50;100.00;100901.19;5017761;28;20080;-66
2021/12/07 07:12:24;;;;;;;26.25;7.22;;;;;;;0.43;100.00;100896.13;5007224;28;20519;-65
2021/12/07 07:14:49;;;;;;;14.25;4.93;;;;;;;0.37;100.00;100912.19;5009016;28;20057;-66
2021/12/07 07:17:15;;;;;;;20.13;6.97;;;;;;;0.42;100.00;100915.53;5006366;28;20038;-65
2021/12/07 07:19:41;;;;;;;24.58;6.28;;;;;;;0.34;100.00;100920.19;5008465;28;20029;-66
2021/12/07 07:22:06;;;;;;;29.70;8.20;;;;;;;0.42;100.00;100922.56;5002912;28;20681;-65
2021/12/07 07:24:33;;;;;;;28.83;8.38;;;;;;;0.46;100.00;100923.34;5012008;28;20110;-66
2021/12/07 07:26:59;;;;;;;20.30;7.10;;;;;;;0.45;100.00;100911.91;5011576;28;20025;-66
2021/12/07 07:29:25;;;;;;;29.85;8.32;;;;;;;0.43;100.00;100908.44;5006157;28;20037;-66
2021/12/07 07:31:50;;;;;;;37.50;11.43;;;;;;;0.43;100.00;100900.53;5006155;28;20040;-66
2021/12/07 07:34:16;;;;;;;31.73;9.90;;;;;;;0.46;100.00;100902.22;5005392;28;20048;-65
2021/12/07 07:36:41;;;;;;;34.13;10.23;;;;;;;0.39;100.00;100909.50;5009088;28;20034;-65
2021/12/07 07:39:07;;;;;;;37.67;9.07;;;;;;;0.42;100.00;100907.59;5010303;28;20064;-65
2021/12/07 07:41:32;;;;;;;19.15;8.43;;;;;;;0.42;100.00;100915.53;5017427;28;20033;-66
2021/12/07 07:43:57;;;;;;;45.20;13.27;;;;;;;0.53;100.00;100911.66;5015885;28;20072;-65
2021/12/07 07:46:23;;;;;;;27.67;9.45;;;;;;;0.40;100.00;100901.50;5018421;28;20038;-66
2021/12/07 07:48:48;;;;;;;43.03;10.40;;;;;;;0.51;100.00;100929.34;5011528;28;20049;-65
2021/12/07 07:51:13;;;;;;;42.85;12.35;;;;;;;0.61;100.00;100921.97;5009201;28;20029;-67
2021/12/07 07:53:39;;;;;;;29.95;9.88;;;;;;;0.51;100.00;100929.34;5008047;28;20041;-66
2021/12/07 07:56:04;;;;;;;21.95;8.38;;;;;;;0.43;100.00;100919.03;5012326;28;20079;-66
2021/12/07 07:58:30;;;;;;;32.05;11.63;;;;;;;0.63;100.00;100928.91;5012809;28;20033;-65
2021/12/07 08:00:55;;;;;;;65.55;16.92;;;;;;;0.85;100.00;100918.44;5013305;28;20044;-66
2021/12/07 08:03:21;;;;;;;40.03;10.88;;;;;;;0.63;100.00;100920.97;5011093;28;20033;-65
2021/12/07 08:05:46;;;;;;;39.60;11.70;;;;;;;0.66;100.00;100909.47;5005243;28;20054;-66
2021/12/07 08:08:12;;;;;;;35.85;8.68;;;;;;;0.88;100.00;100909.53;5004701;28;20681;-65
2021/12/07 08:10:37;;;;;;;40.47;14.20;;;;;;;0.95;100.00;100904.88;5008067;28;20030;-65
2021/12/07 08:13:05;;;;;;;54.05;15.73;;;;;;;1.07;100.00;100895.63;5007881;28;20048;-65
2021/12/07 08:15:32;;;;;;;28.13;9.95;;;;;;;1.08;100.00;100903.53;5016038;28;20112;-65
2021/12/07 08:17:58;;;;;;;52.85;15.85;;;;;;;0.99;100.00;100891.50;4999576;28;20124;-65
2021/12/07 08:20:24;;;;;;;29.80;10.20;;;;;;;1.34;100.00;100912.25;5000406;28;20030;-66
2021/12/07 08:22:50;;;;;;;44.53;13.35;;;;;;;1.45;100.00;100909.19;5008679;28;20054;-66
2021/12/07 08:25:15;;;;;;;28.15;8.00;;;;;;;1.27;100.00;100922.22;5012208;28;20037;-66
2021/12/07 08:27:41;;;;;;;45.78;13.35;;;;;;;1.19;100.00;100893.38;5006520;28;20056;-66
2021/12/07 08:30:08;;;;;;;38.85;10.27;;;;;;;1.23;100.00;100910.03;5008421;28;20032;-66
2021/12/07 08:32:34;;;;;;;36.67;10.70;;;;;;;1.13;100.00;100925.38;5009979;28;20045;-66
2021/12/07 08:34:59;;;;;;;40.78;10.32;;;;;;;1.26;100.00;100925.78;5006890;28;20554;-66
2021/12/07 08:37:25;;;;;;;29.45;10.27;;;;;;;1.29;100.00;100924.78;5010734;28;20061;-66
2021/12/07 08:39:50;;;;;;;50.15;13.40;;;;;;;1.51;100.00;100919.56;5006954;28;20030;-66
2021/12/07 08:42:17;;;;;;;33.97;11.65;;;;;;;1.58;100.00;100917.53;5012948;28;20025;-66
2021/12/07 08:44:42;;;;;;;32.70;10.95;;;;;;;1.52;100.00;100915.09;5010576;28;20025;-66
2021/12/07 08:47:08;;;;;;;37.25;11.15;;;;;;;1.56;100.00;100927.31;5010991;28;20380;-66
2021/12/07 08:49:33;;;;;;;29.23;9.65;;;;;;;1.63;100.00;100926.16;5007263;28;20030;-66
2021/12/07 08:51:59;;;;;;;25.33;7.82;;;;;;;1.68;100.00;100923.31;5011293;28;20042;-65
2021/12/07 09:02:03;;;;;;;36.80;11.23;;;;;;;1.51;100.00;100922.19;5007309;28;20038;-66
2021/12/07 09:04:28;;;;;;;35.70;10.07;;;;;;;1.54;100.00;100934.44;5012756;28;20033;-66
2021/12/07 09:06:54;;;;;;;20.20;8.23;;;;;;;1.41;100.00;100932.28;5010105;28;20034;-66
2021/12/07 09:09:19;;;;;;;51.78;13.63;;;;;;;1.27;100.00;100914.28;5014840;28;20476;-66
2021/12/07 09:11:45;;;;;;;32.53;8.95;;;;;;;1.33;100.00;100939.63;5005490;28;20159;-65
2021/12/07 09:14:13;;;;;;;28.45;9.02;;;;;;;1.37;100.00;100924.50;5006714;28;20098;-66
2021/12/07 09:16:39;;;;;;;32.22;9.10;;;;;;;1.67;100.00;100922.47;5007859;28;20025;-66
2021/12/07 09:19:04;;;;;;;35.75;9.73;;;;;;;1.82;100.00;100926.28;5000415;28;20068;-65
2021/12/07 09:21:30;;;;;;;26.90;9.20;;;;;;;1.85;100.00;100925.28;5015964;28;20644;-65
2021/12/07 09:23:56;;;;;;;48.80;13.20;;;;;;;2.28;100.00;100936.78;5014822;28;20117;-65
2021/12/07 09:26:21;;;;;;;25.65;8.57;;;;;;;2.48;100.00;100927.16;5011216;28;20032;-65
2021/12/07 09:28:47;;;;;;;35.67;9.02;;;;;;;2.74;100.00;100933.97;5010037;28;20025;-66
2021/12/07 09:31:12;;;;;;;35.08;12.27;;;;;;;2.93;100.00;100922.53;5010679;28;20033;-65
2021/12/07 09:33:40;;;;;;;29.75;10.05;;;;;;;3.25;100.00;100931.72;5009300;28;20040;-66
2021/12/07 09:36:07;;;;;;;22.63;7.32;;;;;;;2.86;100.00;100948.47;5008579;28;20152;-65
2021/12/07 09:38:32;;;;;;;30.15;8.43;;;;;;;3.11;100.00;100926.16;5011057;28;20124;-65
2021/12/07 09:40:58;;;;;;;22.77;8.20;;;;;;;3.03;100.00;100933.63;5007290;28;20029;-66
2021/12/07 09:43:24;;;;;;;23.58;7.45;;;;;;;3.00;100.00;100924.00;5011998;28;20032;-65
2021/12/07 09:45:49;;;;;;;21.92;6.18;;;;;;;2.65;100.00;100932.56;5009526;28;20060;-65
2021/12/07 09:48:15;;;;;;;24.42;7.38;;;;;;;2.87;100.00;100938.75;5009528;28;20034;-66
2021/12/07 09:50:44;;;;;;;30.00;7.20;;;;;;;3.11;100.00;100935.00;5006242;28;20049;-65
2021/12/07 09:53:11;;;;;;;23.23;6.13;;;;;;;3.33;100.00;100934.03;5009888;28;20026;-65
2021/12/07 09:55:37;;;;;;;22.27;7.35;;;;;;;3.93;100.00;100935.66;5008236;28;20025;-65
2021/12/07 09:58:04;;;;;;;24.75;8.15;;;;;;;4.29;100.00;100932.09;5012132;28;20040;-66
2021/12/07 10:00:29;;;;;;;23.77;6.15;;;;;;;4.16;97.34;100933.66;5014484;28;20048;-65
2021/12/07 10:02:55;;;;;;;20.35;5.72;;;;;;;4.54;96.41;100930.00;4998326;28;20737;-66
2021/12/07 10:05:22;;;;;;;12.90;6.13;;;;;;;5.00;95.89;100918.78;5005410;28;20117;-66
2021/12/07 10:07:49;;;;;;;27.33;7.13;;;;;;;5.20;95.26;100915.03;5008035;28;20048;-66
2021/12/07 10:10:22;;;;;;;22.75;6.43;;;;;;;5.21;93.25;100916.75;5010972;28;20029;-66
2021/12/07 10:12:48;;;;;;;19.65;5.78;;;;;;;5.13;92.23;100917.16;5009705;28;20061;-66
2021/12/07 10:15:13;;;;;;;19.02;5.47;;;;;;;5.03;93.26;100902.66;5010456;28;20037;-65
2021/12/07 10:17:40;;;;;;;21.83;5.45;;;;;;;5.37;91.73;100908.78;5005713;28;20079;-65
2021/12/07 10:20:23;;;;;;;16.13;6.28;;;;;;;5.42;92.14;100917.38;5008871;28;20029;-65
2021/12/07 10:22:50;;;;;;;16.38;5.53;;;;;;;5.71;90.46;100922.91;5007905;28;20797;-66
2021/12/07 10:25:27;;;;;;;19.70;6.93;;;;;;;5.74;90.71;100917.41;5006391;28;20589;-65
2021/12/07 10:27:52;;;;;;;19.00;7.00;;;;;;;5.39;90.86;100912.22;5005602;28;20037;-66
2021/12/07 10:30:20;;;;;;;19.90;6.38;;;;;;;5.63;89.43;100903.81;4998937;28;20051;-66
2021/12/07 10:32:57;;;;;;;15.63;5.90;;;;;;;6.10;88.42;100899.44;5005645;28;20054;-65
2021/12/07 10:35:28;;;;;;;15.32;6.07;;;;;;;6.08;89.43;100890.66;5006869;28;20029;-66
2021/12/07 10:38:13;;;;;;;17.25;6.20;;;;;;;6.37;84.64;100906.75;5007769;28;20076;-65
2021/12/07 10:41:02;;;;;;;13.20;4.50;;;;;;;6.53;84.51;100898.69;5005114;28;20334;-65
2021/12/07 10:43:53;;;;;;;13.45;4.88;;;;;;;6.59;86.31;100896.50;4999034;28;20025;-65
2021/12/07 10:46:29;;;;;;;19.02;5.50;;;;;;;6.25;83.30;100889.69;5008289;28;20087;-65
2021/12/07 10:49:15;;;;;;;14.18;4.78;;;;;;;6.95;83.94;100891.69;5013984;28;20033;-65
2021/12/07 10:51:55;;;;;;;17.45;5.20;;;;;;;6.70;84.31;100879.84;5013310;28;20033;-65
2021/12/07 10:54:22;;;;;;;17.10;5.75;;;;;;;7.30;82.06;100867.28;5014970;28;20033;-65
2021/12/07 10:56:47;;;;;;;21.30;6.72;;;;;;;6.88;82.16;100871.69;5014672;28;20076;-64
2021/12/07 10:59:13;;;;;;;15.38;5.22;;;;;;;6.60;81.70;100860.88;5015814;28;20507;-65
2021/12/07 11:01:44;;;;;;;18.20;5.25;;;;;;;6.97;80.82;100851.56;5009356;28;20030;-64
2021/12/07 11:04:27;;;;;;;16.52;6.43;;;;;;;7.12;81.33;100857.75;5012802;28;20117;-65
2021/12/07 11:07:10;;;;;;;16.88;5.15;;;;;;;7.28;81.98;100845.16;5010200;28;20025;-65
2021/12/07 11:09:38;;;;;;;20.70;5.40;;;;;;;7.49;79.46;100850.06;5013810;28;20032;-66
2021/12/07 11:12:10;;;;;;;15.50;5.68;;;;;;;7.51;80.30;100837.44;5013832;28;21019;-65
2021/12/07 11:15:10;;;;;;;18.98;4.97;;;;;;;7.20;81.46;100818.94;5017231;28;20116;-65
2021/12/07 11:17:36;;;;;;;14.02;4.90;;;;;;;7.87;78.58;100811.94;5012744;28;20030;-65
2021/12/07 11:20:03;;;;;;;17.52;5.80;;;;;;;7.77;79.40;100802.81;5010803;28;20084;-66
2021/12/07 11:22:31;;;;;;;20.48;6.82;;;;;;;7.76;78.60;100809.13;5011845;28;20707;-65
2021/12/07 11:25:00;;;;;;;10.52;4.57;;;;;;;7.74;77.64;100811.91;5008943;28;20021;-65
2021/12/07 11:30:17;;;;;;;16.70;6.07;;;;;;;8.10;76.96;100788.97;5007364;28;20111;-65
2021/12/07 11:32:54;;;;;;;18.13;5.22;;;;;;;8.41;76.86;100804.75;5006911;28;20391;-65
2021/12/07 11:35:28;;;;;;;15.90;5.82;;;;;;;8.57;77.21;100795.69;5008839;28;20035;-65
2021/12/07 11:37:55;;;;;;;13.93;3.78;;;;;;;8.46;76.24;100802.63;5007221;28;20349;-65
2021/12/07 11:40:34;;;;;;;18.77;5.63;;;;;;;9.11;72.93;100808.78;5009933;28;20037;-65
2021/12/07 11:43:00;;;;;;;18.13;5.30;;;;;;;8.68;74.40;100801.97;5008173;28;20034;-65
2021/12/07 11:45:30;;;;;;;15.35;5.28;;;;;;;8.82;74.33;100802.84;5003080;28;20048;-65
2021/12/07 11:47:59;;;;;;;18.67;5.45;;;;;;;8.76;74.27;100801.44;5008163;28;20036;-65
2021/12/07 11:50:27;;;;;;;10.40;4.35;;;;;;;8.41;74.24;100804.75;5006924;28;20497;-65
2021/12/07 11:52:55;;;;;;;15.30;4.78;;;;;;;8.81;72.79;100799.28;5013651;28;20033;-64
2021/12/07 11:55:22;;;;;;;17.25;4.80;;;;;;;8.37;73.99;100796.06;5014694;28;20025;-65
2021/12/07 11:57:48;;;;;;;14.77;4.68;;;;;;;7.92;75.70;100782.22;5007803;28;20345;-65
2021/12/07 12:00:21;;;;;;;11.57;3.92;;;;;;;7.57;75.90;100785.41;5004159;28;20034;-64
2021/12/07 12:02:47;;;;;;;15.30;4.28;;;;;;;7.63;75.63;100777.88;5005648;28;20025;-65
2021/12/07 12:05:12;;;;;;;15.48;4.85;;;;;;;8.40;72.67;100763.75;5005112;28;20066;-66
2021/12/07 12:07:41;;;;;;;11.98;4.47;;;;;;;7.96;74.43;100776.53;5008838;28;20151;-64
2021/12/07 12:10:08;;;;;;;21.88;5.55;;;;;;;8.51;72.32;100757.69;5005612;28;20033;-65
2021/12/07 12:12:49;;;;;;;16.45;4.60;;;;;;;7.91;72.57;100767.13;5008112;28;20064;-64
2021/12/07 12:15:32;;;;;;;11.25;4.32;;;;;;;7.80;74.76;100762.50;5014393;28;20472;-63
2021/12/07 12:18:24;;;;;;;18.23;4.07;;;;;;;8.15;73.94;100753.91;5008687;28;20021;-64
2021/12/07 12:21:15;;;;;;;15.13;5.00;;;;;;;8.47;73.60;100745.47;5011727;28;20029;-64
2021/12/07 12:23:59;;;;;;;12.25;3.78;;;;;;;7.87;74.39;100747.78;5011492;28;20041;-65
2021/12/07 12:26:26;;;;;;;17.67;4.88;;;;;;;8.16;73.24;100742.25;5010232;28;20052;-64
2021/12/07 12:28:53;;;;;;;13.80;4.07;;;;;;;7.73;72.08;100740.69;5014609;28;20043;-65
2021/12/07 12:31:43;;;;;;;18.65;4.93;;;;;;;7.71;71.86;100734.59;5017326;28;20034;-64
2021/12/07 12:34:17;;;;;;;14.13;4.47;;;;;;;7.34;74.43;100729.91;5007882;28;20030;-65
2021/12/07 12:37:13;;;;;;;16.83;4.18;;;;;;;7.65;73.51;100717.19;5017417;28;20045;-66
2021/12/07 12:39:52;;;;;;;15.35;4.57;;;;;;;7.36;75.00;100705.75;5011430;28;20156;-65
2021/12/07 12:42:31;;;;;;;13.70;4.05;;;;;;;7.71;76.01;100723.03;5015559;28;20136;-65
2021/12/07 12:45:11;;;;;;;20.08;4.22;;;;;;;7.59;73.60;100720.25;5012061;28;20029;-65
2021/12/07 12:47:38;;;;;;;15.77;5.50;;;;;;;7.47;73.92;100710.38;5008452;28;20108;-65
2021/12/07 12:50:24;;;;;;;14.10;5.18;;;;;;;7.57;74.31;100697.25;5011611;28;20030;-66
2021/12/07 12:52:57;;;;;;;15.30;4.38;;;;;;;7.17;74.57;100693.63;5010725;28;20040;-65
2021/12/07 12:55:30;;;;;;;11.57;3.97;;;;;;;7.07;76.49;100694.34;5014089;28;20030;-65
2021/12/07 12:57:55;;;;;;;10.23;5.30;;;;;;;7.02;76.58;100687.47;5013706;28;20025;-65
2021/12/07 13:00:22;;;;;;;12.68;4.97;;;;;;;7.04;76.29;100692.69;5015230;28;20029;-66
2021/12/07 13:02:53;;;;;;;14.65;5.00;;;;;;;6.99;76.17;100679.66;5007734;28;20034;-65
2021/12/07 13:05:33;;;;;;;11.02;4.13;;;;;;;6.52;79.04;100656.91;5009930;28;20026;-65
2021/12/07 13:08:17;;;;;;;14.95;4.78;;;;;;;6.60;77.81;100666.13;5011144;28;20014;-65